Time;durP1;ratioP1;P1;durP2;ratioP2;P2;SDS_P1;SDS_P2;PMS_P1;PMS_P2;Temp;Humidity;BMP_temperature;BMP_pressure;BME280_temperature;BME280_humidity;BME280_pressure;Samples;Min_cycle;Max_cycle;Signal;HPM_P1;HPM_P2
2023/01/20 00:01:48;;;;;;;28.55;20.35;;;;;;;2.27;100.00;100941.25;4723610;30;20078;-61
2023/01/20 00:04:19;;;;;;;26.55;18.73;;;;;;;2.27;100.00;100952.81;4711657;30;20064;-64
2023/01/20 00:06:46;;;;;;;25.23;18.52;;;;;;;2.26;100.00;100944.94;4711311;30;20065;-61
2023/01/20 00:09:16;;;;;;;23.63;17.42;;;;;;;2.29;100.00;100956.13;4719973;30;20414;-60
2023/01/20 00:11:44;;;;;;;24.98;17.38;;;;;;;2.24;100.00;100958.63;4718472;30;20107;-62
2023/01/20 00:14:12;;;;;;;23.63;17.00;;;;;;;2.19;100.00;100955.72;4702738;30;20552;-60
2023/01/20 00:16:39;;;;;;;22.70;16.42;;;;;;;2.20;100.00;100967.31;4718424;30;20056;-63
2023/01/20 00:19:11;;;;;;;24.15;17.10;;;;;;;2.17;100.00;100963.19;4702528;30;20087;-63
2023/01/20 00:21:39;;;;;;;25.27;17.23;;;;;;;2.17;100.00;100967.72;4701953;30;20053;-65
2023/01/20 00:24:06;;;;;;;24.05;16.90;;;;;;;2.14;100.00;100968.94;4701766;30;20084;-62
2023/01/20 00:26:34;;;;;;;23.67;16.40;;;;;;;2.16;100.00;100977.63;4716846;30;20117;-61
2023/01/20 00:29:02;;;;;;;22.63;16.95;;;;;;;2.17;100.00;100979.31;4699582;30;20057;-62
2023/01/20 00:31:31;;;;;;;23.75;16.92;;;;;;;2.16;100.00;100983.00;4696013;30;20088;-62
2023/01/20 00:33:59;;;;;;;23.30;16.95;;;;;;;2.13;100.00;100975.38;4681289;30;20092;-63
2023/01/20 00:36:30;;;;;;;23.27;16.67;;;;;;;2.17;100.00;100973.13;4696571;30;20058;-61
2023/01/20 00:38:57;;;;;;;21.80;16.75;;;;;;;2.15;100.00;100984.06;4696365;30;20137;-61
2023/01/20 00:41:25;;;;;;;24.27;17.70;;;;;;;2.17;100.00;100989.25;4696280;30;20128;-60
2023/01/20 00:43:53;;;;;;;22.33;17.08;;;;;;;2.17;100.00;100990.06;4681181;30;20090;-60
2023/01/20 00:46:21;;;;;;;21.67;16.77;;;;;;;2.19;100.00;100992.53;4682167;30;20058;-59
2023/01/20 00:48:49;;;;;;;21.58;16.08;;;;;;;2.18;100.00;100990.88;4682113;30;20081;-62
2023/01/20 00:51:17;;;;;;;19.92;14.95;;;;;;;2.18;100.00;100996.25;4682490;30;20065;-61
2023/01/20 00:53:45;;;;;;;20.70;14.10;;;;;;;2.20;100.00;100996.88;4681878;30;20092;-64
2023/01/20 00:56:13;;;;;;;20.65;14.77;;;;;;;2.20;100.00;100995.00;4682111;30;20113;-63
2023/01/20 00:58:43;;;;;;;20.08;14.18;;;;;;;2.20;100.00;101004.94;4682240;30;20057;-62
2023/01/20 01:01:11;;;;;;;19.30;13.80;;;;;;;2.22;100.00;100994.81;4696384;30;20141;-63
2023/01/20 01:03:39;;;;;;;17.50;12.35;;;;;;;2.16;100.00;100991.06;4696860;30;20112;-61
2023/01/20 01:06:12;;;;;;;14.48;11.40;;;;;;;2.08;100.00;100997.50;4682764;30;20062;-62
2023/01/20 01:08:40;;;;;;;16.42;11.13;;;;;;;2.07;100.00;100993.16;4696422;30;20543;-63
2023/01/20 01:11:08;;;;;;;16.67;11.73;;;;;;;2.06;100.00;100988.00;4683069;30;20049;-63
2023/01/20 01:13:39;;;;;;;15.50;11.82;;;;;;;2.05;100.00;100991.72;4683121;30;20137;-59
2023/01/20 01:16:11;;;;;;;15.18;11.57;;;;;;;2.07;100.00;100995.03;4682938;30;20466;-62
2023/01/20 01:18:40;;;;;;;15.77;11.77;;;;;;;2.09;100.00;100991.09;4686602;30;20064;-59
2023/01/20 01:21:10;;;;;;;18.25;12.35;;;;;;;2.10;100.00;101000.81;4703072;30;20393;-62
2023/01/20 01:23:38;;;;;;;16.23;11.77;;;;;;;2.08;100.00;101005.56;4694899;30;20054;-63
2023/01/20 01:26:06;;;;;;;17.77;12.45;;;;;;;2.09;100.00;101001.00;4700310;30;20125;-64
2023/01/20 01:28:33;;;;;;;17.55;13.10;;;;;;;2.11;100.00;101002.44;4702545;30;20066;-62
2023/01/20 01:31:02;;;;;;;16.98;12.93;;;;;;;2.12;100.00;101001.44;4657754;30;20051;-62
2023/01/20 01:33:30;;;;;;;18.50;14.00;;;;;;;2.13;100.00;101010.31;4687665;30;20138;-61
2023/01/20 01:36:00;;;;;;;19.48;15.43;;;;;;;2.09;100.00;101015.28;4668435;30;20480;-61
2023/01/20 01:38:28;;;;;;;21.38;15.63;;;;;;;2.09;100.00;101017.97;4697190;30;20065;-62
2023/01/20 01:40:56;;;;;;;22.42;16.58;;;;;;;2.07;100.00;101021.91;4686059;30;20049;-62
2023/01/20 01:43:30;;;;;;;24.30;18.58;;;;;;;2.06;100.00;101023.75;4699919;30;20062;-63
2023/01/20 01:45:58;;;;;;;25.10;18.55;;;;;;;2.05;100.00;101021.28;4699600;30;20068;-65
2023/01/20 01:48:40;;;;;;;27.20;20.65;;;;;;;2.04;100.00;101033.88;4684004;30;20054;-62
2023/01/20 01:51:11;;;;;;;25.85;20.50;;;;;;;2.04;100.00;101033.06;4685828;30;20133;-62
2023/01/20 01:53:43;;;;;;;27.63;21.40;;;;;;;2.00;100.00;101032.66;4656414;30;20062;-62
2023/01/20 01:56:10;;;;;;;30.40;21.85;;;;;;;1.99;100.00;101028.28;4685179;30;20073;-61
2023/01/20 01:58:41;;;;;;;30.20;23.05;;;;;;;2.00;100.00;101032.66;4670203;30;20065;-62
2023/01/20 02:01:09;;;;;;;28.92;22.40;;;;;;;2.04;100.00;101027.69;4681108;30;20050;-61
2023/01/20 02:03:53;;;;;;;30.42;22.55;;;;;;;2.07;100.00;101033.47;4681384;30;20054;-63
2023/01/20 02:06:23;;;;;;;31.00;22.63;;;;;;;2.07;100.00;101025.41;4680824;30;20470;-62
2023/01/20 02:08:51;;;;;;;29.25;22.17;;;;;;;2.08;100.00;101026.25;4669338;30;20104;-62
2023/01/20 02:11:19;;;;;;;26.83;20.77;;;;;;;2.08;100.00;101023.56;4698863;30;20054;-64
2023/01/20 02:13:47;;;;;;;29.30;22.83;;;;;;;2.10;100.00;101016.94;4685319;30;20103;-62
2023/01/20 02:16:26;;;;;;;30.00;22.45;;;;;;;2.10;100.00;101019.63;4698533;30;20058;-62
2023/01/20 02:19:31;;;;;;;29.35;22.40;;;;;;;2.12;100.00;101020.25;4684067;30;20060;-65
2023/01/20 02:22:12;;;;;;;31.40;22.58;;;;;;;2.07;100.00;101016.53;4684347;30;20072;-61
2023/01/20 02:25:01;;;;;;;28.73;20.77;;;;;;;2.10;100.00;101027.69;4685768;30;20112;-64
2023/01/20 02:27:29;;;;;;;31.83;23.08;;;;;;;2.07;100.00;101021.91;4691499;30;20093;-61
2023/01/20 02:30:22;;;;;;;28.33;20.23;;;;;;;2.08;100.00;101020.88;4717771;30;20064;-64
2023/01/20 02:33:02;;;;;;;31.30;21.65;;;;;;;2.08;100.00;101024.38;4719955;30;20403;-63
2023/01/20 02:35:37;;;;;;;29.25;21.05;;;;;;;2.08;100.00;101029.75;4719862;30;20061;-62
2023/01/20 02:38:27;;;;;;;30.55;21.40;;;;;;;2.09;100.00;101030.56;4719599;30;20487;-62
2023/01/20 02:41:40;;;;;;;31.98;22.25;;;;;;;2.09;100.00;101034.09;4705001;30;20053;-62
2023/01/20 02:44:12;;;;;;;34.10;21.85;;;;;;;2.05;100.00;101035.53;4695243;30;20100;-62
2023/01/20 02:46:50;;;;;;;31.00;22.30;;;;;;;2.05;100.00;101040.09;4719965;30;20529;-64
2023/01/20 02:49:26;;;;;;;31.30;21.40;;;;;;;2.04;100.00;101044.63;4718693;30;20059;-65
2023/01/20 02:52:01;;;;;;;31.20;22.02;;;;;;;2.00;100.00;101048.78;4717623;30;20538;-63
2023/01/20 02:54:30;;;;;;;29.65;21.45;;;;;;;2.00;100.00;101054.16;4704162;30;20053;-65
2023/01/20 02:56:59;;;;;;;31.92;21.98;;;;;;;1.98;100.00;101053.53;4718114;30;20057;-63
2023/01/20 02:59:35;;;;;;;32.17;22.10;;;;;;;1.98;100.00;101053.53;4717667;30;20063;-63
2023/01/20 03:02:07;;;;;;;30.40;20.90;;;;;;;2.00;100.00;101054.16;4691580;30;20123;-64
2023/01/20 03:04:40;;;;;;;31.42;21.77;;;;;;;2.00;100.00;101059.53;4710290;30;20080;-64
2023/01/20 03:07:10;;;;;;;27.48;19.83;;;;;;;2.02;100.00;101062.84;4721097;30;20552;-63
2023/01/20 03:09:43;;;;;;;28.13;20.15;;;;;;;2.04;100.00;101071.50;4717813;30;20496;-63
2023/01/20 03:12:25;;;;;;;29.52;19.67;;;;;;;2.04;100.00;101068.81;4705383;30;20053;-65
2023/01/20 03:14:53;;;;;;;29.08;19.65;;;;;;;2.06;100.00;101052.50;4720154;30;20049;-61
2023/01/20 03:17:21;;;;;;;25.00;18.00;;;;;;;2.05;100.00;101065.09;4704334;30;20071;-64
2023/01/20 03:19:49;;;;;;;29.27;20.50;;;;;;;2.06;100.00;101058.69;4704974;30;20063;-64
2023/01/20 03:22:17;;;;;;;27.65;19.55;;;;;;;2.06;100.00;101058.69;4706047;30;20052;-63
2023/01/20 03:24:46;;;;;;;28.33;18.50;;;;;;;2.07;100.00;101048.78;4720425;30;20063;-66
2023/01/20 03:27:14;;;;;;;27.35;18.40;;;;;;;2.09;100.00;101062.81;4719665;30;20057;-64
2023/01/20 03:29:42;;;;;;;26.25;18.27;;;;;;;2.10;100.00;101065.31;4719369;30;20140;-64
2023/01/20 03:32:11;;;;;;;27.10;19.60;;;;;;;2.10;100.00;101068.00;4718694;30;20119;-62
2023/01/20 03:34:40;;;;;;;27.13;19.08;;;;;;;2.09;100.00;101052.91;4719394;30;20061;-63
2023/01/20 03:37:09;;;;;;;24.77;17.63;;;;;;;2.11;100.00;101066.94;4689173;30;20107;-63
2023/01/20 03:39:38;;;;;;;27.85;18.88;;;;;;;2.08;100.00;101067.38;4702715;30;20088;-63
2023/01/20 03:42:06;;;;;;;26.48;16.92;;;;;;;2.06;100.00;101069.44;4703113;30;20589;-64
2023/01/20 03:44:40;;;;;;;26.27;18.08;;;;;;;2.04;100.00;101076.03;4734990;30;20422;-62
2023/01/20 03:47:45;;;;;;;27.70;18.45;;;;;;;2.05;100.00;101067.78;4712770;30;20487;-62
2023/01/20 03:50:19;;;;;;;28.73;19.00;;;;;;;2.04;100.00;101082.25;4709334;30;20132;-58
2023/01/20 03:53:09;;;;;;;27.67;18.10;;;;;;;2.02;100.00;101084.34;4716085;30;20076;-64
2023/01/20 03:55:43;;;;;;;24.23;16.27;;;;;;;1.97;100.00;101081.41;4729916;30;20063;-61
2023/01/20 03:58:14;;;;;;;26.65;18.10;;;;;;;1.96;100.00;101078.94;4706932;30;20507;-64
2023/01/20 04:00:46;;;;;;;27.65;17.45;;;;;;;1.95;100.00;101078.13;4717930;30;20474;-63
2023/01/20 04:03:27;;;;;;;25.60;18.73;;;;;;;1.94;100.00;101079.13;4704106;30;20139;-64
2023/01/20 04:05:58;;;;;;;23.65;16.88;;;;;;;1.97;100.00;101086.78;4706764;30;20083;-62
2023/01/20 04:08:29;;;;;;;26.60;18.38;;;;;;;1.97;100.00;101086.78;4703053;30;20059;-62
2023/01/20 04:10:58;;;;;;;26.73;18.30;;;;;;;1.98;100.00;101080.41;4722593;30;20550;-62
2023/01/20 04:13:26;;;;;;;25.80;17.50;;;;;;;1.96;100.00;101082.44;4704833;30;20141;-64
2023/01/20 04:15:56;;;;;;;27.20;17.77;;;;;;;1.98;100.00;101079.56;4717483;30;20072;-63
2023/01/20 04:18:24;;;;;;;26.27;17.63;;;;;;;1.95;100.00;101083.50;4717522;30;20091;-63
2023/01/20 04:21:02;;;;;;;23.58;15.23;;;;;;;1.94;100.00;101086.38;4718241;30;20079;-64
2023/01/20 04:23:39;;;;;;;26.20;17.90;;;;;;;1.96;100.00;101081.63;4687469;30;20079;-65
2023/01/20 04:26:07;;;;;;;26.42;17.20;;;;;;;1.98;100.00;101080.41;4703099;30;20056;-62
2023/01/20 04:28:34;;;;;;;22.73;16.02;;;;;;;2.01;100.00;101077.28;4704976;30;20062;-61
2023/01/20 04:31:02;;;;;;;26.73;18.73;;;;;;;2.02;100.00;101078.09;4683768;30;20568;-64
2023/01/20 04:33:30;;;;;;;25.55;17.27;;;;;;;2.03;100.00;101079.78;4696091;30;20141;-64
2023/01/20 04:35:57;;;;;;;25.42;17.25;;;;;;;2.02;100.00;101089.72;4683302;30;20157;-64
2023/01/20 04:38:25;;;;;;;28.73;17.77;;;;;;;2.00;100.00;101086.41;4683396;30;20058;-61
2023/01/20 04:40:53;;;;;;;26.95;18.65;;;;;;;1.99;100.00;101081.22;4681955;30;20060;-63
2023/01/20 04:43:20;;;;;;;28.13;17.92;;;;;;;2.00;100.00;101091.78;4696698;30;20116;-64
2023/01/20 04:45:48;;;;;;;25.58;17.10;;;;;;;2.01;100.00;101093.41;4682279;30;20137;-64
2023/01/20 04:48:16;;;;;;;25.77;15.60;;;;;;;2.03;100.00;101096.72;4697347;30;20157;-62
2023/01/20 04:50:43;;;;;;;26.80;18.27;;;;;;;2.03;100.00;101096.72;4682841;30;20360;-64
2023/01/20 04:53:15;;;;;;;29.33;18.63;;;;;;;2.04;100.00;101093.00;4681888;30;20062;-65
2023/01/20 04:55:43;;;;;;;24.27;16.63;;;;;;;2.03;100.00;101091.34;4684289;30;20066;-64
2023/01/20 04:58:11;;;;;;;27.38;18.77;;;;;;;2.00;100.00;101099.84;4685256;30;20120;-64
2023/01/20 05:00:38;;;;;;;26.23;18.60;;;;;;;2.00;100.00;101107.06;4687273;30;20065;-63
2023/01/20 05:03:07;;;;;;;25.77;18.02;;;;;;;1.99;100.00;101103.53;4699943;30;20568;-62
2023/01/20 05:05:35;;;;;;;25.45;17.38;;;;;;;1.98;100.00;101104.56;4685711;30;20058;-63
2023/01/20 05:08:03;;;;;;;26.92;18.17;;;;;;;1.98;100.00;101093.84;4685853;30;20058;-64
2023/01/20 05:10:32;;;;;;;24.10;16.13;;;;;;;1.99;100.00;101094.66;4686987;30;20065;-62
2023/01/20 05:13:00;;;;;;;29.05;18.73;;;;;;;1.97;100.00;101107.47;4687070;30;20543;-63
2023/01/20 05:15:28;;;;;;;27.60;19.48;;;;;;;1.90;100.00;101113.66;4686860;30;20054;-63
2023/01/20 05:17:55;;;;;;;29.05;20.10;;;;;;;1.91;100.00;101120.69;4684658;30;20510;-64
2023/01/20 05:20:23;;;;;;;26.15;18.83;;;;;;;1.94;100.00;101122.13;4686434;30;20058;-64
2023/01/20 05:22:51;;;;;;;27.95;18.50;;;;;;;1.95;100.00;101120.25;4685742;30;20050;-65
2023/01/20 05:25:18;;;;;;;27.85;18.48;;;;;;;1.97;100.00;101119.03;4685093;30;20072;-63
2023/01/20 05:27:46;;;;;;;29.05;20.70;;;;;;;1.96;100.00;101106.63;4683849;30;20066;-63
2023/01/20 05:30:14;;;;;;;29.17;20.52;;;;;;;1.92;100.00;101108.91;4699243;30;20086;-65
2023/01/20 05:32:43;;;;;;;25.83;17.20;;;;;;;1.91;100.00;101111.81;4699745;30;20133;-64
2023/01/20 05:35:11;;;;;;;26.55;19.10;;;;;;;1.90;100.00;101108.28;4686281;30;20093;-63
2023/01/20 05:37:39;;;;;;;30.52;20.08;;;;;;;1.88;100.00;101113.03;4685568;30;20083;-63
2023/01/20 05:40:07;;;;;;;27.20;18.55;;;;;;;1.87;100.00;101110.53;4699006;30;20054;-63
2023/01/20 05:42:35;;;;;;;28.45;20.33;;;;;;;1.89;100.00;101113.84;4685908;30;20072;-63
2023/01/20 05:45:03;;;;;;;28.05;19.73;;;;;;;1.90;100.00;101116.34;4685137;30;20140;-64
2023/01/20 05:47:31;;;;;;;29.48;20.25;;;;;;;1.91;100.00;101119.88;4699101;30;20084;-62
2023/01/20 05:49:58;;;;;;;28.75;20.25;;;;;;;1.93;100.00;101112.44;4685117;30;20137;-63
2023/01/20 05:52:26;;;;;;;24.48;16.08;;;;;;;1.93;100.00;101117.81;4685336;30;20057;-63
2023/01/20 05:54:54;;;;;;;24.40;15.98;;;;;;;1.96;100.00;101114.69;4681132;30;20130;-62
2023/01/20 05:57:25;;;;;;;22.85;15.80;;;;;;;1.99;100.00;101122.34;4667405;30;20112;-62
2023/01/20 05:59:54;;;;;;;22.42;14.82;;;;;;;1.98;100.00;101115.31;4676610;30;20420;-63
2023/01/20 06:02:22;;;;;;;27.73;19.33;;;;;;;1.96;100.00;101116.56;4684358;30;20074;-63
2023/01/20 06:04:50;;;;;;;25.30;17.48;;;;;;;1.97;100.00;101118.22;4684465;30;20512;-62
2023/01/20 06:07:17;;;;;;;19.98;14.13;;;;;;;2.01;100.00;101117.59;4684955;30;20085;-60
2023/01/20 06:09:45;;;;;;;19.38;12.77;;;;;;;2.05;100.00;101126.91;4685009;30;20069;-59
2023/01/20 06:12:13;;;;;;;21.85;14.80;;;;;;;2.15;100.00;101136.44;4698568;30;20068;-60
2023/01/20 06:14:40;;;;;;;20.55;12.60;;;;;;;2.56;100.00;101139.78;4684390;30;20054;-63
2023/01/20 06:17:09;;;;;;;26.63;17.65;;;;;;;2.40;100.00;101144.72;4685633;30;20134;-62
2023/01/20 06:19:37;;;;;;;22.17;15.65;;;;;;;2.22;100.00;101137.28;4684380;30;20508;-63
2023/01/20 06:22:06;;;;;;;20.45;13.77;;;;;;;2.29;100.00;101144.31;4682113;30;20050;-62
2023/01/20 06:24:34;;;;;;;36.65;23.08;;;;;;;2.16;100.00;101148.84;4653174;30;20200;-64
2023/01/20 06:27:02;;;;;;;34.08;22.67;;;;;;;1.96;100.00;101156.88;4668225;30;20060;-63
2023/01/20 06:29:31;;;;;;;31.88;22.05;;;;;;;1.87;100.00;101154.34;4699870;30;20092;-63
2023/01/20 06:32:01;;;;;;;32.85;22.25;;;;;;;1.82;100.00;101158.69;4712918;30;20068;-62
2023/01/20 06:34:29;;;;;;;31.02;19.65;;;;;;;1.84;100.00;101153.94;4676491;30;20061;-61
2023/01/20 06:36:57;;;;;;;24.50;16.55;;;;;;;1.92;100.00;101148.38;4704382;30;20071;-62
2023/01/20 06:39:25;;;;;;;23.95;15.90;;;;;;;2.07;100.00;101145.53;4704825;30;20130;-61
2023/01/20 06:41:55;;;;;;;18.95;12.13;;;;;;;2.53;100.00;101142.88;4719197;30;20077;-61
2023/01/20 06:44:23;;;;;;;23.30;12.95;;;;;;;2.50;100.00;101146.00;4710354;30;20565;-63
2023/01/20 06:46:51;;;;;;;23.83;14.77;;;;;;;2.34;100.00;101146.41;4709907;30;20073;-61
2023/01/20 06:49:19;;;;;;;23.45;14.90;;;;;;;2.39;100.00;101140.41;4720070;30;20119;-61
2023/01/20 06:51:48;;;;;;;22.42;12.65;;;;;;;2.49;100.00;101146.19;4728882;30;20053;-64
2023/01/20 06:54:16;;;;;;;25.33;16.13;;;;;;;2.35;100.00;101153.41;4705976;30;20065;-63
2023/01/20 06:56:44;;;;;;;26.35;17.83;;;;;;;2.26;100.00;101143.88;4718853;30;20136;-64
2023/01/20 06:59:11;;;;;;;24.00;14.52;;;;;;;2.28;100.00;101144.50;4704435;30;20049;-64
2023/01/20 07:01:39;;;;;;;13.70;7.70;;;;;;;2.34;100.00;101144.53;4717079;30;20059;-59
2023/01/20 07:04:10;;;;;;;23.65;15.43;;;;;;;2.38;100.00;101150.31;4703803;30;20131;-62
2023/01/20 07:06:39;;;;;;;18.25;11.48;;;;;;;2.46;100.00;101154.69;4689313;30;20619;-65
2023/01/20 07:09:10;;;;;;;22.95;14.63;;;;;;;2.41;100.00;101152.59;4717495;30;20503;-65
2023/01/20 07:11:38;;;;;;;29.73;21.58;;;;;;;2.22;100.00;101156.09;4718550;30;20052;-62
2023/01/20 07:14:06;;;;;;;31.80;20.80;;;;;;;2.02;100.00;101167.66;4714499;30;20514;-63
2023/01/20 07:16:34;;;;;;;33.83;21.88;;;;;;;1.91;100.00;101169.03;4698353;30;20053;-62
2023/01/20 07:19:02;;;;;;;34.15;22.42;;;;;;;1.86;100.00;101171.50;4703053;30;20140;-64
2023/01/20 07:21:30;;;;;;;32.13;21.38;;;;;;;1.85;100.00;101179.75;4717969;30;20053;-62
2023/01/20 07:24:01;;;;;;;30.70;21.80;;;;;;;1.82;100.00;101170.25;4703008;30;20064;-62
2023/01/20 07:26:29;;;;;;;31.92;21.20;;;;;;;1.83;100.00;101168.41;4718554;30;20052;-64
2023/01/20 07:28:57;;;;;;;32.33;21.15;;;;;;;1.86;100.00;101176.06;4689609;30;20400;-63
2023/01/20 07:31:27;;;;;;;22.60;15.85;;;;;;;1.96;100.00;101181.06;4689153;30;20057;-65
2023/01/20 07:33:55;;;;;;;25.23;16.45;;;;;;;2.08;100.00;101180.25;4713443;30;20061;-61
2023/01/20 07:36:23;;;;;;;32.17;18.70;;;;;;;2.15;100.00;101163.34;4701129;30;20073;-63
2023/01/20 07:38:52;;;;;;;20.63;13.60;;;;;;;2.26;100.00;101176.16;4690284;30;20556;-64
2023/01/20 07:41:21;;;;;;;24.02;14.82;;;;;;;2.22;100.00;101177.59;4704111;30;20131;-62
2023/01/20 07:43:51;;;;;;;21.80;15.07;;;;;;;2.21;100.00;101182.13;4696267;30;20071;-63
2023/01/20 07:46:20;;;;;;;34.00;20.75;;;;;;;2.12;100.00;101180.69;4713159;30;20057;-62
2023/01/20 07:48:48;;;;;;;31.13;22.65;;;;;;;2.03;100.00;101192.66;4713519;30;20084;-61
2023/01/20 07:51:17;;;;;;;32.88;21.70;;;;;;;1.95;100.00;101190.97;4722912;30;20139;-61
2023/01/20 07:53:46;;;;;;;34.22;21.90;;;;;;;1.94;100.00;101209.97;4718383;30;20057;-63
2023/01/20 07:56:17;;;;;;;33.53;22.15;;;;;;;1.92;100.00;101202.97;4703681;30;20551;-62
2023/01/20 07:58:46;;;;;;;34.20;21.42;;;;;;;1.93;100.00;101193.03;4720676;30;20561;-61
2023/01/20 08:01:19;;;;;;;33.92;22.45;;;;;;;1.91;100.00;101200.47;4719810;30;20061;-63
2023/01/20 08:03:47;;;;;;;26.88;18.73;;;;;;;1.90;100.00;101198.78;4716689;30;20053;-63
2023/01/20 08:06:17;;;;;;;20.98;13.75;;;;;;;2.04;100.00;101205.06;4718901;30;20063;-60
2023/01/20 08:08:46;;;;;;;26.95;16.90;;;;;;;2.25;100.00;101206.75;4719573;30;20049;-63
2023/01/20 08:11:15;;;;;;;21.00;13.10;;;;;;;2.22;100.00;101201.81;4689585;30;20103;-62
2023/01/20 08:13:43;;;;;;;17.83;11.30;;;;;;;2.36;100.00;101203.50;4688536;30;20502;-63
2023/01/20 08:16:12;;;;;;;22.48;14.52;;;;;;;2.42;100.00;101197.28;4718427;30;20064;-61
2023/01/20 08:18:41;;;;;;;25.60;16.05;;;;;;;2.50;100.00;101202.47;4687328;30;20475;-63
2023/01/20 08:21:21;;;;;;;16.33;9.73;;;;;;;2.62;100.00;101191.94;4716707;30;20056;-61
2023/01/20 08:23:54;;;;;;;20.33;13.00;;;;;;;2.56;100.00;101195.44;4716652;30;20084;-62
2023/01/20 08:26:27;;;;;;;23.40;16.38;;;;;;;2.44;100.00;101197.09;4717916;30;20087;-62
2023/01/20 08:28:59;;;;;;;21.70;14.88;;;;;;;2.33;100.00;101202.03;4701920;30;20070;-65
2023/01/20 08:31:27;;;;;;;20.20;14.32;;;;;;;2.32;100.00;101207.59;4694789;30;20058;-62
2023/01/20 08:33:56;;;;;;;23.15;16.88;;;;;;;2.29;100.00;101218.78;4683525;30;20058;-64
2023/01/20 08:36:26;;;;;;;18.92;12.35;;;;;;;2.28;100.00;101217.09;4682210;30;20061;-61
2023/01/20 08:38:55;;;;;;;15.65;8.40;;;;;;;2.46;100.00;101197.72;4693483;30;20094;-60
2023/01/20 08:41:29;;;;;;;19.30;13.30;;;;;;;2.52;100.00;101205.75;4666632;30;20062;-60
2023/01/20 08:43:58;;;;;;;16.50;9.95;;;;;;;2.81;100.00;101201.03;4682072;30;20137;-60
2023/01/20 08:46:27;;;;;;;13.52;7.55;;;;;;;3.11;100.00;101203.31;4681894;30;20054;-63
2023/01/20 08:48:55;;;;;;;19.25;13.77;;;;;;;3.18;100.00;101206.81;4680656;30;20069;-63
2023/01/20 08:51:28;;;;;;;19.92;13.10;;;;;;;2.90;100.00;101215.94;4681954;30;20564;-56
2023/01/20 08:53:57;;;;;;;19.02;13.20;;;;;;;2.71;100.00;101216.75;4683081;30;20125;-60
2023/01/20 08:56:25;;;;;;;20.38;11.38;;;;;;;2.82;100.00;101218.84;4668107;30;20058;-62
2023/01/20 08:58:53;;;;;;;23.80;14.10;;;;;;;2.95;100.00;101221.50;4668133;30;20058;-62
2023/01/20 09:01:23;;;;;;;20.20;14.13;;;;;;;2.79;100.00;101221.94;4667199;30;20650;-62
2023/01/20 09:03:52;;;;;;;23.15;15.32;;;;;;;2.76;100.00;101222.34;4677892;30;20082;-62
2023/01/20 09:06:58;;;;;;;12.93;8.00;;;;;;;2.85;100.00;101221.09;4678579;30;20050;-64
2023/01/20 09:09:25;;;;;;;11.63;6.38;;;;;;;3.09;100.00;101210.75;4681988;30;20073;-62
2023/01/20 09:11:53;;;;;;;16.92;11.05;;;;;;;2.96;100.00;101217.81;4682432;30;20066;-62
2023/01/20 09:14:23;;;;;;;14.27;9.98;;;;;;;2.87;100.00;101216.34;4668013;30;20058;-62
2023/01/20 09:16:51;;;;;;;10.43;6.38;;;;;;;3.05;100.00;101217.56;4681109;30;20062;-63
2023/01/20 09:19:19;;;;;;;18.25;11.98;;;;;;;2.95;100.00;101210.75;4680752;30;20054;-64
2023/01/20 09:21:46;;;;;;;13.07;6.90;;;;;;;3.20;100.00;101205.56;4682980;30;20121;-64
2023/01/20 09:24:14;;;;;;;14.23;10.15;;;;;;;3.12;100.00;101213.84;4673852;30;20119;-63
2023/01/20 09:26:43;;;;;;;11.02;6.57;;;;;;;3.33;100.00;101212.78;4688167;30;20066;-63
2023/01/20 09:29:13;;;;;;;18.83;13.57;;;;;;;2.85;100.00;101218.41;4698623;30;20104;-64
2023/01/20 09:31:56;;;;;;;22.02;16.55;;;;;;;2.50;100.00;101215.94;4686416;30;20050;-63
2023/01/20 09:34:28;;;;;;;13.80;9.27;;;;;;;2.40;100.00;101223.53;4696054;30;20153;-63
2023/01/20 09:43:52;;;;;;;22.20;14.35;;;;;;;2.34;100.00;101224.38;4682047;30;20496;-65
2023/01/20 09:46:02;;;;;;;19.17;14.07;;;;;;;1.97;100.00;101237.28;4686567;30;20142;-64
2023/01/20 09:54:36;;;;;;;19.35;14.95;;;;;;;2.02;100.00;101242.03;4686183;30;20104;-63
2023/01/20 09:57:06;;;;;;;20.25;15.40;;;;;;;2.07;100.00;101240.44;4699372;30;20144;-64
2023/01/20 09:59:46;;;;;;;18.75;14.23;;;;;;;2.10;100.00;101240.03;4684710;30;20064;-65
2023/01/20 10:02:24;;;;;;;17.05;11.20;;;;;;;2.16;100.00;101251.00;4684328;30;20522;-63
2023/01/20 10:04:58;;;;;;;20.98;13.82;;;;;;;2.16;100.00;101243.75;4699750;30;20052;-62
2023/01/20 10:07:45;;;;;;;18.65;14.32;;;;;;;2.16;100.00;101251.00;4699395;30;20054;-63
2023/01/20 10:10:18;;;;;;;20.42;14.20;;;;;;;2.12;100.00;101248.72;4699601;30;20390;-64
2023/01/20 10:12:47;;;;;;;15.57;11.77;;;;;;;2.12;100.00;101259.47;4699769;30;20129;-65
2023/01/20 10:15:24;;;;;;;19.08;13.48;;;;;;;2.13;100.00;101258.41;4685153;30;20057;-64
2023/01/20 10:18:01;;;;;;;15.65;12.85;;;;;;;2.13;100.00;101254.91;4682637;30;20066;-65
2023/01/20 10:21:22;;;;;;;17.42;13.05;;;;;;;2.18;100.00;101259.69;4685886;30;20109;-63
2023/01/20 10:23:58;;;;;;;16.73;12.23;;;;;;;2.29;100.00;101257.25;4668764;30;20054;-63
2023/01/20 10:26:43;;;;;;;14.80;11.48;;;;;;;2.24;100.00;101258.91;4685453;30;20152;-63
2023/01/20 10:29:27;;;;;;;15.27;11.68;;;;;;;2.18;100.00;101271.25;4686766;30;20120;-64
2023/01/20 10:32:23;;;;;;;16.40;12.80;;;;;;;2.18;100.00;101273.13;4687004;30;20064;-64
2023/01/20 10:34:53;;;;;;;15.52;12.07;;;;;;;2.17;100.00;101272.31;4684158;30;20416;-65
2023/01/20 10:37:23;;;;;;;16.17;12.57;;;;;;;2.19;100.00;101269.41;4690411;30;20125;-64
2023/01/20 10:40:08;;;;;;;13.50;10.65;;;;;;;2.19;100.00;101266.72;4668182;30;20055;-66
2023/01/20 10:42:36;;;;;;;17.77;11.77;;;;;;;2.16;100.00;101261.75;4668813;30;20054;-62
2023/01/20 10:45:11;;;;;;;15.15;11.73;;;;;;;2.15;100.00;101270.84;4667314;30;20082;-61
2023/01/20 10:47:57;;;;;;;14.73;11.77;;;;;;;2.19;100.00;101266.72;4678155;30;20055;-63
2023/01/20 10:51:07;;;;;;;14.32;11.00;;;;;;;2.21;100.00;101265.47;4681313;30;20054;-63
2023/01/20 10:53:46;;;;;;;23.52;18.00;;;;;;;2.20;100.00;101271.06;4675029;30;20548;-65
2023/01/20 10:56:37;;;;;;;17.52;13.93;;;;;;;2.15;100.00;101265.47;4668978;30;20077;-64
2023/01/20 10:59:12;;;;;;;17.20;12.77;;;;;;;2.16;100.00;101272.50;4698315;30;20077;-65
2023/01/20 11:01:42;;;;;;;14.80;12.00;;;;;;;2.12;100.00;101272.91;4683967;30;20050;-65
2023/01/20 11:04:20;;;;;;;16.73;12.40;;;;;;;2.10;100.00;101274.97;4670231;30;20109;-63
2023/01/20 11:06:55;;;;;;;15.40;12.18;;;;;;;2.09;100.00;101273.31;4684401;30;20110;-66
2023/01/20 11:09:35;;;;;;;15.93;12.65;;;;;;;2.12;100.00;101272.09;4696785;30;20477;-65
2023/01/20 11:12:09;;;;;;;15.07;11.07;;;;;;;2.17;100.00;101276.84;4669743;30;20085;-65
2023/01/20 11:14:38;;;;;;;14.82;11.25;;;;;;;2.23;100.00;101279.53;4706985;30;20054;-65
2023/01/20 11:17:07;;;;;;;14.20;11.00;;;;;;;2.27;100.00;101274.63;4698011;30;20064;-67
2023/01/20 11:19:53;;;;;;;14.65;11.27;;;;;;;2.27;100.00;101264.69;4689234;30;20100;-67
2023/01/20 11:22:29;;;;;;;14.10;11.02;;;;;;;2.26;100.00;101281.00;4663178;30;20058;-62
2023/01/20 11:25:02;;;;;;;14.75;9.68;;;;;;;2.30;100.00;101269.63;4679084;30;20058;-64
2023/01/20 11:27:45;;;;;;;16.00;11.52;;;;;;;2.40;100.00;101273.81;4708795;30;20073;-62
2023/01/20 11:30:25;;;;;;;13.27;10.60;;;;;;;2.37;100.00;101275.03;4696607;30;20079;-64
2023/01/20 11:33:18;;;;;;;14.30;10.88;;;;;;;2.37;100.00;101280.44;4722376;30;20507;-63
2023/01/20 11:35:58;;;;;;;15.43;11.85;;;;;;;2.30;100.00;101274.19;4720407;30;20057;-63
2023/01/20 11:38:39;;;;;;;13.55;10.98;;;;;;;2.25;100.00;101276.66;4719577;30;20061;-63
2023/01/20 11:41:18;;;;;;;14.32;11.20;;;;;;;2.24;100.00;101285.78;4703820;30;20132;-64
2023/01/20 11:43:47;;;;;;;14.40;11.40;;;;;;;2.24;100.00;101280.41;4703863;30;20053;-65